Time;durP1;ratioP1;P1;durP2;ratioP2;P2;SDS_P1;SDS_P2;PMS_P1;PMS_P2;Temp;Humidity;BMP_temperature;BMP_pressure;BME280_temperature;BME280_humidity;BME280_pressure;Samples;Min_cycle;Max_cycle;Signal;HPM_P1;HPM_P2
2022/01/15 00:00:06;;;;;;;;;;;20.80;39.10;;;;;;6299066;28;20001;-43
2022/01/15 00:03:14;;;;;;;;;;;20.30;38.70;;;;;;6287482;28;19928;-46
2022/01/15 00:06:17;;;;;;;;;;;20.30;38.90;;;;;;6305295;28;19973;-47
2022/01/15 00:09:21;;;;;;;;;;;20.60;39.20;;;;;;6288210;28;20054;-44
2022/01/15 00:12:23;;;;;;;;;;;20.70;39.20;;;;;;6296411;28;19935;-43
2022/01/15 00:15:28;;;;;;;;;;;21.10;39.30;;;;;;6299107;28;19931;-47
2022/01/15 00:18:41;;;;;;;;;;;20.20;38.80;;;;;;6301825;28;20524;-43
2022/01/15 00:21:43;;;;;;;;;;;20.60;38.90;;;;;;6302985;28;19927;-42
2022/01/15 00:24:45;;;;;;;;;;;20.80;38.70;;;;;;6304099;28;20738;-44
2022/01/15 00:27:47;;;;;;;;;;;20.40;38.90;;;;;;6304494;28;19928;-42
2022/01/15 00:30:48;;;;;;;;;;;20.50;39.00;;;;;;6304235;28;20041;-44
2022/01/15 00:33:50;;;;;;;;;;;20.60;39.20;;;;;;6304185;28;20806;-43
2022/01/15 00:36:52;;;;;;;;;;;20.60;38.30;;;;;;6305508;28;19938;-49
2022/01/15 00:39:54;;;;;;;;;;;20.70;39.00;;;;;;6304680;28;19923;-44
2022/01/15 00:42:55;;;;;;;;;;;20.30;39.40;;;;;;6303061;28;19928;-42
2022/01/15 00:45:57;;;;;;;;;;;20.70;39.20;;;;;;6303182;28;19970;-42
2022/01/15 00:48:59;;;;;;;;;;;20.60;38.90;;;;;;6299991;28;19934;-44
2022/01/15 00:52:01;;;;;;;;;;;20.50;39.00;;;;;;6307115;28;19928;-44
2022/01/15 00:55:04;;;;;;;;;;;20.40;38.50;;;;;;6301433;28;19931;-44
2022/01/15 00:58:05;;;;;;;;;;;20.50;38.90;;;;;;6303980;28;20741;-44
2022/01/15 01:01:07;;;;;;;;;;;20.20;38.90;;;;;;6306604;28;19969;-42
2022/01/15 01:04:08;;;;;;;;;;;20.70;39.00;;;;;;6313447;28;19928;-47
2022/01/15 01:07:10;;;;;;;;;;;20.10;38.70;;;;;;6310968;28;20541;-46
2022/01/15 01:10:42;;;;;;;;;;;20.20;38.70;;;;;;6315103;28;19924;-45
2022/01/15 01:20:22;;;;;;;;;;;20.50;38.90;;;;;;6309896;28;19928;-43
2022/01/15 01:23:24;;;;;;;;;;;20.00;38.60;;;;;;6307181;28;20043;-43
2022/01/15 01:26:30;;;;;;;;;;;20.50;38.90;;;;;;6305151;28;19927;-45
2022/01/15 01:29:40;;;;;;;;;;;20.20;39.60;;;;;;6315527;28;20000;-44
2022/01/15 01:32:46;;;;;;;;;;;21.00;39.20;;;;;;6314734;28;19935;-45
2022/01/15 01:36:01;;;;;;;;;;;20.30;39.00;;;;;;6316707;28;20846;-42
2022/01/15 01:39:08;;;;;;;;;;;20.10;38.90;;;;;;6317649;28;19923;-44
2022/01/15 01:42:32;;;;;;;;;;;20.50;39.20;;;;;;6311658;28;20755;-43
2022/01/15 01:45:33;;;;;;;;;;;20.10;38.80;;;;;;6298537;28;19996;-42
2022/01/15 01:48:35;;;;;;;;;;;20.10;38.90;;;;;;6313573;28;20683;-43
2022/01/15 01:51:39;;;;;;;;;;;20.90;39.30;;;;;;6309857;28;19934;-46
2022/01/15 01:54:41;;;;;;;;;;;19.80;38.70;;;;;;6292415;28;19928;-43
2022/01/15 01:57:43;;;;;;;;;;;20.60;39.20;;;;;;6298590;28;19966;-45
2022/01/15 02:00:44;;;;;;;;;;;20.20;38.90;;;;;;6293371;28;20062;-47
2022/01/15 02:03:46;;;;;;;;;;;20.00;39.00;;;;;;6306132;28;19943;-46
2022/01/15 02:06:48;;;;;;;;;;;20.10;39.00;;;;;;6311460;28;20042;-43
2022/01/15 02:09:49;;;;;;;;;;;20.80;39.50;;;;;;6311061;28;19931;-43
2022/01/15 02:12:51;;;;;;;;;;;20.40;39.10;;;;;;6309288;28;20067;-48
2022/01/15 02:15:55;;;;;;;;;;;20.10;39.00;;;;;;6293658;28;20652;-44
2022/01/15 02:18:57;;;;;;;;;;;20.00;38.90;;;;;;6313660;28;19933;-44
2022/01/15 02:25:15;;;;;;;;;;;20.00;39.10;;;;;;6318144;28;20571;-43
2022/01/15 02:28:17;;;;;;;;;;;20.30;39.30;;;;;;6312853;28;19924;-43
2022/01/15 02:31:19;;;;;;;;;;;20.10;39.10;;;;;;6309813;28;19928;-45
2022/01/15 02:34:20;;;;;;;;;;;20.00;39.10;;;;;;6295295;28;19931;-44
2022/01/15 02:37:22;;;;;;;;;;;19.90;39.20;;;;;;6315279;28;19929;-45
2022/01/15 02:40:23;;;;;;;;;;;19.90;39.20;;;;;;6314616;28;19970;-47
2022/01/15 02:43:30;;;;;;;;;;;20.40;39.50;;;;;;6315728;28;20033;-43
2022/01/15 02:48:00;;;;;;;;;;;20.30;39.30;;;;;;6311668;28;19927;-42
2022/01/15 02:49:56;;;;;;;;;;;20.10;39.30;;;;;;6302082;28;20250;-42
2022/01/15 02:53:01;;;;;;;;;;;20.00;39.40;;;;;;6310752;28;20311;-42
2022/01/15 02:56:03;;;;;;;;;;;20.00;39.10;;;;;;6300451;28;20468;-43
2022/01/15 02:59:05;;;;;;;;;;;20.40;39.30;;;;;;6302620;28;20058;-43
2022/01/15 03:02:06;;;;;;;;;;;20.00;39.20;;;;;;6284165;28;20096;-42
2022/01/15 03:05:08;;;;;;;;;;;20.40;39.50;;;;;;6305987;28;19923;-42
2022/01/15 03:08:10;;;;;;;;;;;19.90;39.20;;;;;;6308134;28;19930;-43
2022/01/15 03:11:12;;;;;;;;;;;19.90;39.30;;;;;;6308967;28;19923;-43
2022/01/15 03:14:18;;;;;;;;;;;20.10;39.40;;;;;;6304347;28;19984;-42
2022/01/15 03:17:19;;;;;;;;;;;19.80;39.30;;;;;;6310709;28;20656;-42
2022/01/15 03:20:21;;;;;;;;;;;20.10;39.50;;;;;;6307550;28;19924;-42
2022/01/15 03:23:23;;;;;;;;;;;19.90;39.40;;;;;;6308592;28;19970;-43
2022/01/15 03:26:24;;;;;;;;;;;20.00;39.40;;;;;;6304366;28;20606;-42
2022/01/15 03:29:27;;;;;;;;;;;20.40;39.00;;;;;;6306920;28;19928;-43
2022/01/15 03:32:28;;;;;;;;;;;20.10;39.50;;;;;;6295966;28;19923;-45
2022/01/15 03:35:30;;;;;;;;;;;20.20;39.60;;;;;;6312183;28;19991;-42
2022/01/15 03:38:31;;;;;;;;;;;19.90;39.30;;;;;;6309338;28;19967;-42
2022/01/15 03:41:33;;;;;;;;;;;19.90;39.40;;;;;;6299280;28;19923;-42
2022/01/15 03:44:34;;;;;;;;;;;19.90;39.60;;;;;;6306589;28;20314;-42
2022/01/15 03:47:36;;;;;;;;;;;19.80;39.40;;;;;;6300220;28;19930;-45
2022/01/15 03:50:37;;;;;;;;;;;19.80;39.50;;;;;;6302458;28;20597;-43
2022/01/15 03:53:39;;;;;;;;;;;19.90;39.50;;;;;;6296129;28;20394;-42
2022/01/15 03:56:41;;;;;;;;;;;20.20;39.60;;;;;;6293958;28;20491;-44
2022/01/15 03:59:42;;;;;;;;;;;20.60;39.80;;;;;;6303712;28;20299;-42
2022/01/15 04:02:44;;;;;;;;;;;20.20;39.60;;;;;;6304686;28;20526;-42
2022/01/15 04:05:45;;;;;;;;;;;20.20;39.50;;;;;;6289635;28;19923;-42
2022/01/15 04:08:47;;;;;;;;;;;20.30;39.70;;;;;;6301874;28;19970;-42
2022/01/15 04:11:48;;;;;;;;;;;20.00;39.50;;;;;;6303755;28;20475;-43
2022/01/15 04:14:50;;;;;;;;;;;19.90;39.60;;;;;;6297873;28;20508;-44
2022/01/15 04:17:51;;;;;;;;;;;19.80;39.50;;;;;;6312976;28;20016;-44
2022/01/15 04:20:52;;;;;;;;;;;19.60;39.30;;;;;;6313222;28;20006;-46
2022/01/15 04:23:54;;;;;;;;;;;19.80;39.50;;;;;;6315746;28;20050;-43
2022/01/15 04:26:56;;;;;;;;;;;19.80;39.40;;;;;;6296827;28;19924;-43
2022/01/15 04:30:01;;;;;;;;;;;20.20;39.40;;;;;;6302286;28;19924;-42
2022/01/15 04:33:03;;;;;;;;;;;19.50;39.20;;;;;;6295307;28;20008;-43
2022/01/15 04:36:05;;;;;;;;;;;19.80;39.50;;;;;;6310042;28;19934;-42
2022/01/15 04:39:07;;;;;;;;;;;20.00;39.60;;;;;;6310838;28;20726;-42
2022/01/15 04:42:09;;;;;;;;;;;19.50;39.30;;;;;;6304282;28;20133;-42
2022/01/15 04:45:11;;;;;;;;;;;19.70;39.40;;;;;;6294346;28;20073;-43
2022/01/15 04:48:12;;;;;;;;;;;19.80;39.30;;;;;;6286067;28;20736;-42
2022/01/15 04:51:14;;;;;;;;;;;20.10;39.60;;;;;;6312789;28;19969;-44
2022/01/15 04:54:15;;;;;;;;;;;19.70;39.40;;;;;;6311480;28;20009;-42
2022/01/15 04:57:17;;;;;;;;;;;19.80;39.40;;;;;;6308214;28;19962;-42
2022/01/15 05:00:18;;;;;;;;;;;20.20;39.50;;;;;;6301203;28;20431;-46
2022/01/15 05:03:20;;;;;;;;;;;20.10;39.60;;;;;;6302098;28;20750;-42
2022/01/15 05:06:21;;;;;;;;;;;20.20;39.70;;;;;;6304718;28;20159;-42
2022/01/15 05:09:23;;;;;;;;;;;19.70;39.50;;;;;;6307510;28;19966;-42
2022/01/15 05:12:28;;;;;;;;;;;19.60;39.40;;;;;;6303436;28;20251;-42
2022/01/15 05:15:30;;;;;;;;;;;20.00;39.50;;;;;;6306048;28;20030;-44
2022/01/15 05:18:31;;;;;;;;;;;19.80;39.50;;;;;;6307683;28;20272;-42
2022/01/15 05:21:33;;;;;;;;;;;19.90;39.60;;;;;;6299939;28;20477;-43
2022/01/15 05:24:35;;;;;;;;;;;19.70;39.50;;;;;;6298099;28;20363;-46
2022/01/15 05:27:37;;;;;;;;;;;19.70;39.40;;;;;;6293065;28;20550;-42
2022/01/15 05:30:38;;;;;;;;;;;20.20;39.70;;;;;;6298526;28;20376;-42
2022/01/15 05:33:39;;;;;;;;;;;19.80;39.50;;;;;;6295974;28;19923;-42
2022/01/15 05:36:41;;;;;;;;;;;20.00;39.70;;;;;;6301342;28;19923;-42
2022/01/15 05:39:42;;;;;;;;;;;19.70;39.50;;;;;;6290778;28;19924;-42
2022/01/15 05:42:44;;;;;;;;;;;20.10;39.60;;;;;;6297469;28;19994;-43
2022/01/15 05:45:46;;;;;;;;;;;19.70;39.30;;;;;;6298619;28;20227;-42
2022/01/15 05:48:47;;;;;;;;;;;19.70;39.40;;;;;;6301219;28;20330;-43
2022/01/15 05:51:48;;;;;;;;;;;19.90;39.60;;;;;;6302848;28;19974;-43
2022/01/15 05:54:50;;;;;;;;;;;19.60;39.50;;;;;;6302409;28;19966;-43
2022/01/15 05:57:51;;;;;;;;;;;20.10;39.60;;;;;;6293117;28;20013;-42
2022/01/15 06:00:53;;;;;;;;;;;20.30;39.90;;;;;;6299038;28;20330;-42
2022/01/15 06:03:54;;;;;;;;;;;20.00;39.50;;;;;;6299682;28;19958;-43
2022/01/15 06:06:56;;;;;;;;;;;19.60;39.30;;;;;;6303108;28;20001;-44
2022/01/15 06:09:58;;;;;;;;;;;20.00;39.80;;;;;;6291107;28;20717;-42
2022/01/15 06:12:59;;;;;;;;;;;19.90;39.60;;;;;;6303670;28;19924;-42
2022/01/15 06:16:00;;;;;;;;;;;19.70;39.60;;;;;;6300074;28;20676;-43
2022/01/15 06:19:02;;;;;;;;;;;19.60;39.50;;;;;;6300479;28;20057;-43
2022/01/15 06:22:03;;;;;;;;;;;19.80;39.60;;;;;;6284869;28;19934;-42
2022/01/15 06:25:06;;;;;;;;;;;19.60;39.50;;;;;;6292699;28;19923;-42
2022/01/15 06:28:07;;;;;;;;;;;19.70;39.50;;;;;;6295727;28;20303;-43
2022/01/15 06:31:08;;;;;;;;;;;20.10;39.70;;;;;;6297215;28;19962;-43
2022/01/15 06:34:10;;;;;;;;;;;19.80;39.70;;;;;;6300901;28;19923;-42
2022/01/15 06:37:11;;;;;;;;;;;19.60;39.50;;;;;;6303852;28;20199;-42
2022/01/15 06:40:13;;;;;;;;;;;19.50;39.50;;;;;;6299597;28;20014;-42
2022/01/15 06:43:15;;;;;;;;;;;19.50;39.40;;;;;;6299898;28;19927;-42
2022/01/15 06:46:16;;;;;;;;;;;19.80;39.70;;;;;;6302986;28;20454;-42
2022/01/15 06:49:18;;;;;;;;;;;19.50;39.40;;;;;;6302034;28;20038;-42
2022/01/15 06:52:20;;;;;;;;;;;19.60;39.50;;;;;;6302327;28;20038;-43
2022/01/15 06:55:22;;;;;;;;;;;19.80;39.50;;;;;;6298549;28;20433;-42
2022/01/15 06:58:24;;;;;;;;;;;20.00;39.70;;;;;;6294108;28;19924;-43
2022/01/15 07:01:25;;;;;;;;;;;20.30;39.80;;;;;;6262458;28;20914;-44
2022/01/15 07:04:26;;;;;;;;;;;19.60;39.50;;;;;;6279150;28;20733;-42
2022/01/15 07:07:28;;;;;;;;;;;20.00;39.60;;;;;;6282431;28;20042;-43
2022/01/15 07:10:30;;;;;;;;;;;19.80;39.70;;;;;;6291419;28;20296;-45
2022/01/15 07:13:33;;;;;;;;;;;19.30;39.50;;;;;;6278198;28;20038;-46
2022/01/15 07:16:34;;;;;;;;;;;20.00;39.80;;;;;;6291714;28;19927;-42
2022/01/15 07:19:36;;;;;;;;;;;19.50;39.50;;;;;;6294340;28;20024;-42
2022/01/15 07:22:37;;;;;;;;;;;19.60;39.50;;;;;;6279613;28;20781;-43
2022/01/15 07:25:39;;;;;;;;;;;19.60;39.60;;;;;;6281937;28;20393;-44
2022/01/15 07:28:40;;;;;;;;;;;19.80;39.60;;;;;;6283800;28;19927;-42
2022/01/15 07:31:44;;;;;;;;;;;20.10;39.80;;;;;;6284033;28;20049;-43
2022/01/15 07:34:45;;;;;;;;;;;19.90;39.70;;;;;;6296977;28;19927;-42
2022/01/15 07:37:47;;;;;;;;;;;19.60;39.60;;;;;;6297852;28;20848;-45
2022/01/15 07:40:49;;;;;;;;;;;19.50;39.50;;;;;;6297046;28;20733;-42
2022/01/15 07:43:50;;;;;;;;;;;19.40;39.50;;;;;;6297845;28;19942;-45
2022/01/15 07:46:53;;;;;;;;;;;19.70;38.90;;;;;;6283718;28;19923;-43
2022/01/15 07:49:54;;;;;;;;;;;20.10;39.90;;;;;;6280184;28;20075;-42
2022/01/15 07:52:56;;;;;;;;;;;19.90;39.70;;;;;;6276558;28;20335;-42
2022/01/15 07:55:58;;;;;;;;;;;19.70;39.60;;;;;;6284450;28;20388;-41
2022/01/15 07:59:00;;;;;;;;;;;19.80;39.70;;;;;;6280173;28;20172;-44
2022/01/15 08:02:01;;;;;;;;;;;19.90;39.40;;;;;;6277018;28;19970;-42
2022/01/15 08:05:03;;;;;;;;;;;19.50;39.60;;;;;;6276074;28;20343;-42
2022/01/15 08:08:04;;;;;;;;;;;19.60;39.60;;;;;;6278812;27;20004;-42
2022/01/15 08:11:06;;;;;;;;;;;19.70;39.80;;;;;;6285988;28;19923;-42
2022/01/15 08:14:07;;;;;;;;;;;19.40;39.60;;;;;;6286793;28;20555;-42
2022/01/15 08:17:09;;;;;;;;;;;20.00;40.00;;;;;;6285181;28;20319;-42
2022/01/15 08:20:11;;;;;;;;;;;19.80;39.60;;;;;;6284037;28;20044;-42
2022/01/15 08:23:12;;;;;;;;;;;19.50;39.50;;;;;;6290822;28;20142;-43
2022/01/15 08:26:14;;;;;;;;;;;19.60;39.40;;;;;;6288027;28;20241;-42
2022/01/15 08:29:21;;;;;;;;;;;19.80;39.90;;;;;;6286528;28;20187;-42
2022/01/15 08:32:22;;;;;;;;;;;20.10;39.90;;;;;;6283528;28;20193;-42
2022/01/15 08:35:23;;;;;;;;;;;19.90;40.00;;;;;;6288622;28;19923;-42
2022/01/15 08:38:24;;;;;;;;;;;19.50;39.70;;;;;;6267203;28;19928;-45
2022/01/15 08:41:31;;;;;;;;;;;19.50;39.70;;;;;;6284388;28;19967;-42
2022/01/15 08:44:34;;;;;;;;;;;19.60;39.60;;;;;;6283891;28;19927;-42
2022/01/15 08:47:36;;;;;;;;;;;19.70;39.60;;;;;;6280898;28;20085;-42
2022/01/15 08:50:37;;;;;;;;;;;19.50;39.60;;;;;;6255981;28;20021;-43
2022/01/15 08:53:39;;;;;;;;;;;19.40;40.10;;;;;;6279682;28;19934;-42
2022/01/15 08:56:41;;;;;;;;;;;19.50;39.70;;;;;;6282396;28;19930;-42
2022/01/15 08:59:42;;;;;;;;;;;19.90;39.80;;;;;;6285999;28;19996;-42
2022/01/15 09:02:44;;;;;;;;;;;19.50;39.60;;;;;;6295543;28;19920;-43
2022/01/15 09:05:45;;;;;;;;;;;19.60;39.50;;;;;;6291739;28;20243;-43
2022/01/15 09:08:47;;;;;;;;;;;19.30;39.60;;;;;;6274651;28;19923;-42
2022/01/15 09:11:49;;;;;;;;;;;19.70;39.80;;;;;;6278419;28;19928;-42
2022/01/15 09:14:52;;;;;;;;;;;19.50;39.60;;;;;;6276622;28;19924;-41
2022/01/15 09:17:53;;;;;;;;;;;20.10;39.80;;;;;;6283237;28;20034;-42
2022/01/15 09:20:55;;;;;;;;;;;19.50;39.40;;;;;;6283517;28;20055;-43
2022/01/15 09:23:57;;;;;;;;;;;19.70;39.40;;;;;;6280569;28;19971;-42
2022/01/15 09:27:03;;;;;;;;;;;19.60;39.30;;;;;;6281786;28;19978;-42
2022/01/15 09:30:15;;;;;;;;;;;19.60;39.20;;;;;;6276406;28;20046;-42
2022/01/15 09:33:16;;;;;;;;;;;20.20;37.10;;;;;;6279558;28;20224;-42
2022/01/15 09:36:18;;;;;;;;;;;19.90;39.20;;;;;;6279649;28;20648;-43
2022/01/15 09:39:20;;;;;;;;;;;19.70;38.90;;;;;;6287454;28;20314;-43
2022/01/15 09:42:22;;;;;;;;;;;20.10;39.00;;;;;;6281190;28;20559;-42
2022/01/15 09:45:24;;;;;;;;;;;19.80;38.80;;;;;;6280110;28;20306;-42
2022/01/15 09:48:26;;;;;;;;;;;19.90;38.70;;;;;;6280704;28;20104;-42
2022/01/15 09:51:29;;;;;;;;;;;20.00;38.70;;;;;;6264417;28;19928;-42
2022/01/15 09:54:30;;;;;;;;;;;20.30;38.80;;;;;;6284088;28;20355;-42
2022/01/15 09:57:32;;;;;;;;;;;20.00;38.70;;;;;;6287903;28;20180;-42
2022/01/15 10:00:34;;;;;;;;;;;20.10;38.70;;;;;;6285307;28;20039;-47
2022/01/15 10:03:36;;;;;;;;;;;20.60;38.70;;;;;;6296789;28;19963;-42
2022/01/15 10:06:37;;;;;;;;;;;20.20;38.80;;;;;;6293713;28;21670;-43
2022/01/15 10:09:38;;;;;;;;;;;20.30;38.90;;;;;;6296465;28;20095;-42
2022/01/15 10:12:42;;;;;;;;;;;20.10;38.60;;;;;;6287695;28;19977;-42
2022/01/15 10:15:45;;;;;;;;;;;20.20;38.70;;;;;;6286781;28;20015;-42
2022/01/15 10:18:47;;;;;;;;;;;20.50;38.70;;;;;;6282145;28;19927;-43
2022/01/15 10:22:03;;;;;;;;;;;20.20;38.60;;;;;;6279842;28;19931;-42
2022/01/15 10:25:05;;;;;;;;;;;20.60;38.70;;;;;;6285078;28;20334;-42
2022/01/15 10:28:08;;;;;;;;;;;20.20;38.50;;;;;;6266639;28;19956;-45
2022/01/15 10:31:17;;;;;;;;;;;20.40;38.60;;;;;;6299583;28;20026;-42
2022/01/15 10:34:27;;;;;;;;;;;20.70;36.50;;;;;;6279430;28;19930;-42
2022/01/15 10:37:34;;;;;;;;;;;20.60;38.50;;;;;;6257567;28;20171;-43
2022/01/15 10:40:38;;;;;;;;;;;20.20;38.20;;;;;;6286511;28;20376;-42
2022/01/15 10:43:40;;;;;;;;;;;20.30;38.10;;;;;;6292334;28;20492;-42
2022/01/15 10:46:42;;;;;;;;;;;20.30;38.20;;;;;;6282208;28;19928;-43
2022/01/15 10:49:44;;;;;;;;;;;20.50;38.30;;;;;;6273850;28;19923;-42
2022/01/15 10:52:45;;;;;;;;;;;20.40;38.10;;;;;;6258982;28;20106;-42
2022/01/15 10:55:51;;;;;;;;;;;20.70;38.40;;;;;;6281963;28;20817;-44
2022/01/15 10:59:07;;;;;;;;;;;20.50;38.20;;;;;;6279584;28;20034;-43
2022/01/15 11:02:16;;;;;;;;;;;20.00;37.60;;;;;;6270219;28;20494;-43
2022/01/15 11:05:22;;;;;;;;;;;21.00;38.10;;;;;;6260280;28;19924;-45
2022/01/15 11:08:25;;;;;;;;;;;20.60;38.00;;;;;;6277054;28;20115;-44
2022/01/15 11:11:27;;;;;;;;;;;20.50;37.90;;;;;;6264923;28;20295;-44
2022/01/15 11:14:29;;;;;;;;;;;21.00;38.10;;;;;;6285180;28;20109;-43
2022/01/15 11:17:31;;;;;;;;;;;20.70;37.90;;;;;;6283177;28;20882;-43
2022/01/15 11:20:33;;;;;;;;;;;20.50;37.70;;;;;;6284714;28;20443;-42
2022/01/15 11:23:36;;;;;;;;;;;20.60;37.70;;;;;;6262395;28;20024;-42
2022/01/15 11:26:37;;;;;;;;;;;20.90;37.80;;;;;;6277909;28;20101;-42
2022/01/15 11:29:41;;;;;;;;;;;20.90;37.90;;;;;;6281575;28;20288;-43
2022/01/15 11:32:43;;;;;;;;;;;21.00;37.80;;;;;;6262175;28;19927;-42
2022/01/15 11:35:45;;;;;;;;;;;21.50;38.10;;;;;;6278926;28;19931;-43
2022/01/15 11:38:47;;;;;;;;;;;21.30;38.10;;;;;;6278489;28;20406;-41
2022/01/15 11:41:49;;;;;;;;;;;20.70;37.60;;;;;;6278729;28;20051;-43
2022/01/15 11:44:51;;;;;;;;;;;21.10;37.70;;;;;;6261108;28;19932;-42
2022/01/15 11:48:07;;;;;;;;;;;20.90;37.70;;;;;;6273563;28;20058;-43
2022/01/15 11:51:24;;;;;;;;;;;20.90;37.50;;;;;;6257926;28;19923;-43
2022/01/15 11:54:25;;;;;;;;;;;20.90;37.50;;;;;;6274656;28;20094;-42
2022/01/15 11:57:28;;;;;;;;;;;20.90;37.50;;;;;;6287068;28;20034;-42
2022/01/15 12:00:32;;;;;;;;;;;20.70;37.30;;;;;;6285931;28;20322;-43
2022/01/15 12:03:39;;;;;;;;;;;21.00;37.40;;;;;;6263453;28;20336;-42
2022/01/15 12:06:55;;;;;;;;;;;21.40;35.80;;;;;;6279221;28;20078;-42
2022/01/15 12:09:56;;;;;;;;;;;20.90;37.20;;;;;;6278234;28;20896;-42
2022/01/15 12:13:09;;;;;;;;;;;21.30;37.60;;;;;;6278873;28;20133;-44
2022/01/15 12:16:26;;;;;;;;;;;20.90;37.30;;;;;;6284430;28;20454;-43
2022/01/15 12:19:35;;;;;;;;;;;20.90;37.20;;;;;;6279182;28;20010;-42
2022/01/15 12:22:39;;;;;;;;;;;21.20;37.40;;;;;;6281449;28;20047;-42
2022/01/15 12:25:40;;;;;;;;;;;21.10;37.20;;;;;;6280650;28;20329;-42
2022/01/15 12:28:47;;;;;;;;;;;21.40;37.60;;;;;;6278340;28;19959;-43
2022/01/15 12:31:49;;;;;;;;;;;21.00;37.20;;;;;;6282367;28;20826;-42
2022/01/15 12:34:51;;;;;;;;;;;21.50;37.30;;;;;;6269304;28;20236;-42
2022/01/15 12:37:53;;;;;;;;;;;21.70;37.10;;;;;;6270636;28;20210;-43
2022/01/15 12:40:56;;;;;;;;;;;21.50;37.20;;;;;;6276315;28;19928;-43
2022/01/15 12:43:58;;;;;;;;;;;21.20;37.10;;;;;;6261353;28;20416;-42
2022/01/15 12:47:00;;;;;;;;;;;21.20;37.00;;;;;;6277461;28;19993;-42
2022/01/15 12:50:02;;;;;;;;;;;21.00;37.00;;;;;;6270848;28;19931;-42
2022/01/15 12:53:04;;;;;;;;;;;21.30;37.10;;;;;;6273576;28;20349;-42
2022/01/15 12:56:06;;;;;;;;;;;21.30;37.00;;;;;;6256301;28;20875;-43
2022/01/15 12:59:07;;;;;;;;;;;21.60;37.20;;;;;;6279403;28;20470;-42
2022/01/15 13:02:09;;;;;;;;;;;21.20;37.20;;;;;;6286689;28;20355;-42
2022/01/15 13:05:11;;;;;;;;;;;21.80;37.30;;;;;;6286168;28;20319;-41
2022/01/15 13:08:14;;;;;;;;;;;21.70;37.00;;;;;;6266839;28;20249;-42
2022/01/15 13:11:20;;;;;;;;;;;21.30;36.90;;;;;;6286124;28;20457;-42
2022/01/15 13:14:21;;;;;;;;;;;21.60;37.10;;;;;;6285542;28;20357;-43
2022/01/15 13:17:24;;;;;;;;;;;21.60;37.10;;;;;;6280098;28;20049;-42
2022/01/15 13:20:27;;;;;;;;;;;21.60;37.00;;;;;;6283114;28;19934;-42
2022/01/15 13:23:37;;;;;;;;;;;21.60;36.90;;;;;;6280910;28;19992;-42
2022/01/15 13:26:39;;;;;;;;;;;21.30;36.80;;;;;;6264135;28;20177;-45
2022/01/15 13:29:42;;;;;;;;;;;21.60;36.90;;;;;;6261597;28;19970;-43
2022/01/15 13:32:52;;;;;;;;;;;21.40;36.80;;;;;;6283268;28;19958;-42
2022/01/15 13:35:53;;;;;;;;;;;21.40;36.70;;;;;;6285048;28;20625;-43
2022/01/15 13:38:54;;;;;;;;;;;22.00;37.10;;;;;;6265310;28;20261;-45
2022/01/15 13:41:56;;;;;;;;;;;21.50;36.90;;;;;;6276270;28;19958;-43
2022/01/15 13:45:04;;;;;;;;;;;21.50;37.10;;;;;;6276426;28;20391;-43
2022/01/15 13:48:08;;;;;;;;;;;21.60;36.60;;;;;;6279566;28;20880;-42
2022/01/15 13:54:27;;;;;;;;;;;21.50;36.60;;;;;;6288695;28;20016;-43
2022/01/15 13:57:29;;;;;;;;;;;21.60;36.80;;;;;;6289234;28;20753;-42
2022/01/15 14:00:31;;;;;;;;;;;21.90;36.90;;;;;;6263083;28;20426;-43
2022/01/15 14:03:33;;;;;;;;;;;22.00;37.00;;;;;;6278798;28;20095;-43
2022/01/15 14:06:39;;;;;;;;;;;21.60;36.60;;;;;;6278948;28;20774;-42
2022/01/15 14:09:42;;;;;;;;;;;22.40;36.90;;;;;;6288626;28;20054;-42
2022/01/15 14:12:43;;;;;;;;;;;21.40;36.40;;;;;;6283765;28;20197;-43
2022/01/15 14:15:49;;;;;;;;;;;21.60;36.60;;;;;;6292294;28;20310;-45
2022/01/15 14:19:00;;;;;;;;;;;21.70;36.70;;;;;;6285191;28;19927;-43
2022/01/15 14:22:14;;;;;;;;;;;21.70;36.50;;;;;;6276618;28;20168;-42
2022/01/15 14:25:17;;;;;;;;;;;21.90;36.60;;;;;;6280839;28;20311;-42
2022/01/15 14:28:23;;;;;;;;;;;21.70;36.70;;;;;;6279232;28;20533;-42
2022/01/15 14:31:24;;;;;;;;;;;21.70;36.60;;;;;;6271769;28;19930;-44
2022/01/15 14:34:26;;;;;;;;;;;21.90;36.70;;;;;;6276231;28;20382;-42
2022/01/15 14:37:28;;;;;;;;;;;22.10;36.80;;;;;;6278138;28;19931;-43
2022/01/15 14:40:30;;;;;;;;;;;22.10;36.60;;;;;;6276757;28;19927;-43
2022/01/15 14:43:31;;;;;;;;;;;21.60;36.50;;;;;;6247266;28;19924;-43
2022/01/15 14:46:33;;;;;;;;;;;21.70;36.50;;;;;;6278213;28;19954;-42
2022/01/15 14:49:35;;;;;;;;;;;22.10;36.70;;;;;;6272466;28;20323;-43
2022/01/15 14:52:36;;;;;;;;;;;21.50;36.40;;;;;;6271527;28;19963;-44
2022/01/15 14:55:38;;;;;;;;;;;22.10;36.80;;;;;;6272436;28;20232;-42
2022/01/15 14:58:39;;;;;;;;;;;21.70;36.60;;;;;;6276534;28;20450;-43
2022/01/15 15:01:41;;;;;;;;;;;21.80;36.60;;;;;;6276977;28;20232;-43
2022/01/15 15:04:43;;;;;;;;;;;21.70;36.50;;;;;;6275691;28;21323;-43
2022/01/15 15:07:44;;;;;;;;;;;22.10;36.60;;;;;;6274920;28;19927;-42
2022/01/15 15:10:47;;;;;;;;;;;22.30;36.80;;;;;;6278176;28;19930;-43
2022/01/15 15:13:48;;;;;;;;;;;22.00;36.60;;;;;;6270326;28;20253;-42
2022/01/15 15:16:49;;;;;;;;;;;22.00;36.70;;;;;;6273264;28;20497;-43
2022/01/15 15:19:51;;;;;;;;;;;22.10;36.80;;;;;;6276914;28;19934;-43
2022/01/15 15:22:53;;;;;;;;;;;21.80;36.60;;;;;;6275762;28;19928;-42
2022/01/15 15:25:54;;;;;;;;;;;22.30;36.90;;;;;;6278423;28;19923;-43
2022/01/15 15:28:56;;;;;;;;;;;21.90;36.60;;;;;;6277328;28;20335;-42
2022/01/15 15:31:57;;;;;;;;;;;22.00;36.50;;;;;;6277966;28;19930;-42
2022/01/15 15:34:59;;;;;;;;;;;21.70;36.50;;;;;;6281036;28;20606;-43
2022/01/15 15:38:00;;;;;;;;;;;22.00;36.70;;;;;;6282898;28;20386;-42
2022/01/15 15:41:02;;;;;;;;;;;22.30;36.50;;;;;;6279407;28;19931;-42
2022/01/15 15:44:03;;;;;;;;;;;21.70;36.40;;;;;;6275270;28;19955;-42
2022/01/15 15:47:06;;;;;;;;;;;21.90;36.60;;;;;;6274511;28;20315;-43
2022/01/15 15:50:08;;;;;;;;;;;21.80;36.60;;;;;;6275453;28;20274;-42
2022/01/15 15:53:10;;;;;;;;;;;22.00;36.60;;;;;;6276557;28;19927;-44
2022/01/15 15:56:17;;;;;;;;;;;22.30;36.70;;;;;;6260187;28;19924;-42
2022/01/15 15:59:18;;;;;;;;;;;21.70;36.40;;;;;;6277112;28;19928;-43
2022/01/15 16:02:20;;;;;;;;;;;22.20;36.80;;;;;;6275020;28;20310;-43
2022/01/15 16:05:22;;;;;;;;;;;21.70;36.50;;;;;;6274029;28;19935;-42
2022/01/15 16:08:23;;;;;;;;;;;22.30;36.80;;;;;;6275101;28;20150;-43
2022/01/15 16:11:26;;;;;;;;;;;22.00;36.60;;;;;;6274760;28;20058;-43
2022/01/15 16:14:27;;;;;;;;;;;21.60;36.30;;;;;;6267548;28;19934;-43
2022/01/15 16:17:29;;;;;;;;;;;21.80;36.60;;;;;;6271301;28;20682;-42
2022/01/15 16:20:31;;;;;;;;;;;21.80;36.50;;;;;;6274746;28;20516;-43
2022/01/15 16:23:33;;;;;;;;;;;21.80;36.50;;;;;;6275096;28;20454;-42
2022/01/15 16:26:35;;;;;;;;;;;22.10;36.60;;;;;;6269906;28;20180;-43
2022/01/15 16:29:38;;;;;;;;;;;22.00;36.60;;;;;;6276244;28;20572;-45
2022/01/15 16:32:39;;;;;;;;;;;22.10;36.70;;;;;;6276163;28;20094;-43
2022/01/15 16:35:41;;;;;;;;;;;22.20;36.70;;;;;;6280495;28;20481;-43
2022/01/15 16:38:43;;;;;;;;;;;21.90;36.60;;;;;;6278581;28;20548;-42
2022/01/15 16:41:44;;;;;;;;;;;22.20;36.70;;;;;;6269376;28;20231;-43
2022/01/15 16:44:46;;;;;;;;;;;21.90;36.70;;;;;;6274428;28;19927;-42
2022/01/15 16:47:48;;;;;;;;;;;21.80;36.60;;;;;;6269609;28;19928;-44
2022/01/15 16:50:50;;;;;;;;;;;22.00;36.60;;;;;;6273985;28;19928;-43
2022/01/15 16:53:51;;;;;;;;;;;22.50;36.90;;;;;;6275641;28;20324;-42
2022/01/15 16:56:53;;;;;;;;;;;22.30;36.80;;;;;;6282557;28;20299;-43
2022/01/15 16:59:54;;;;;;;;;;;22.10;36.70;;;;;;6274423;28;20143;-45
2022/01/15 17:02:55;;;;;;;;;;;21.90;36.70;;;;;;6280746;28;20085;-44
2022/01/15 17:05:57;;;;;;;;;;;21.80;36.70;;;;;;6279568;28;20465;-42
2022/01/15 17:08:59;;;;;;;;;;;22.10;36.80;;;;;;6270873;28;20055;-42
2022/01/15 17:12:00;;;;;;;;;;;22.10;36.80;;;;;;6270758;28;20326;-44
2022/01/15 17:15:02;;;;;;;;;;;21.90;36.70;;;;;;6278031;28;20194;-42
2022/01/15 17:18:04;;;;;;;;;;;21.80;36.60;;;;;;6280488;28;20209;-43
2022/01/15 17:21:06;;;;;;;;;;;22.20;36.90;;;;;;6283376;28;19959;-47
2022/01/15 17:24:07;;;;;;;;;;;21.90;36.80;;;;;;6268029;28;20102;-43
2022/01/15 17:27:09;;;;;;;;;;;21.80;36.90;;;;;;6284218;28;20474;-43
2022/01/15 17:30:11;;;;;;;;;;;21.70;36.80;;;;;;6282384;28;20342;-43
2022/01/15 17:33:13;;;;;;;;;;;21.60;36.70;;;;;;6252773;28;20022;-43
2022/01/15 17:36:14;;;;;;;;;;;21.60;37.00;;;;;;6278547;28;20038;-42
2022/01/15 17:39:16;;;;;;;;;;;22.20;37.30;;;;;;6263069;28;20182;-43
2022/01/15 17:42:18;;;;;;;;;;;22.00;37.30;;;;;;6270497;28;19977;-42
2022/01/15 17:45:19;;;;;;;;;;;21.70;37.20;;;;;;6273996;28;20482;-42
2022/01/15 17:48:22;;;;;;;;;;;21.50;37.00;;;;;;6277756;28;19927;-43
2022/01/15 17:51:25;;;;;;;;;;;21.90;37.50;;;;;;6276538;28;19928;-42
2022/01/15 17:54:28;;;;;;;;;;;21.50;37.20;;;;;;6278498;28;20644;-43